createdAt,value
2018-02-07T00:00:02.810Z,78.9
2018-02-07T00:05:08.089Z,80
2018-02-07T00:10:02.911Z,80
2018-02-07T00:15:03.244Z,81
2018-02-07T00:20:03.557Z,81.1
2018-02-07T00:25:02.861Z,82.8
2018-02-07T00:30:08.140Z,84.1
2018-02-07T00:35:08.498Z,84.4
2018-02-07T00:40:03.280Z,84.4
2018-02-07T00:45:08.607Z,87.2
2018-02-07T00:50:13.030Z,87.7
2018-02-07T00:55:08.298Z,88.6
2018-02-07T01:00:05.167Z,89.5
2018-02-07T01:05:02.907Z,89.4
2018-02-07T01:10:07.754Z,90.4
2018-02-07T01:15:02.978Z,90.4
2018-02-07T01:20:05.928Z,91.6
2018-02-07T01:25:17.891Z,93.4
2018-02-07T01:30:03.195Z,93.5
2018-02-07T01:35:05.955Z,93.7
2018-02-07T01:40:02.711Z,93.7
2018-02-07T01:45:05.493Z,94.6
2018-02-07T01:50:05.303Z,95.8
2018-02-07T01:55:03.028Z,95.8
2018-02-07T02:00:08.367Z,97.5
2018-02-07T02:05:08.611Z,97.7
2018-02-07T02:10:05.946Z,98.8
2018-02-07T02:15:07.671Z,99.5
2018-02-07T02:20:03.024Z,99.5
2018-02-07T02:25:03.275Z,99.9
2018-02-07T02:30:06.106Z,99.9
2018-02-07T02:35:05.292Z,99.9
2018-02-07T02:40:03.004Z,99.9
2018-02-07T02:45:08.334Z,99.9
2018-02-07T02:50:07.670Z,99.9
2018-02-07T02:55:02.838Z,99.9
2018-02-07T03:00:03.128Z,99.9
2018-02-07T03:05:03.457Z,99.9
2018-02-07T03:10:05.767Z,99.9
2018-02-07T03:15:03.550Z,99.9
2018-02-07T03:20:08.023Z,99.9
2018-02-07T03:25:08.264Z,99.9
2018-02-07T03:30:06.110Z,99.9
2018-02-07T03:35:05.315Z,99.9
2018-02-07T03:40:03.050Z,99.9
2018-02-07T03:45:08.404Z,99.9
2018-02-07T03:50:02.737Z,99.9
2018-02-07T03:55:03.050Z,99.9
2018-02-07T04:00:10.894Z,99.9
2018-02-07T04:05:16.154Z,99.9
2018-02-07T04:10:18.155Z,99.9
2018-02-07T04:15:08.231Z,99.9
2018-02-07T04:20:02.564Z,99.9
2018-02-07T04:25:08.236Z,99.9
2018-02-07T04:30:05.386Z,99.9
2018-02-07T04:35:05.947Z,99.9
2018-02-07T04:40:02.933Z,99.9
2018-02-07T04:45:03.505Z,99.9
2018-02-07T04:50:05.607Z,99.9
2018-02-07T04:55:03.631Z,99.9
2018-02-07T05:00:08.229Z,99.9
2018-02-07T05:05:20.415Z,99.9
2018-02-07T05:10:05.992Z,99.9
2018-02-07T05:15:03.197Z,99.9
2018-02-07T05:20:05.461Z,99.9
2018-02-07T05:25:05.993Z,99.9
2018-02-07T05:30:06.161Z,99.9
2018-02-07T05:35:05.664Z,99.9
2018-02-07T05:40:05.256Z,99.9
2018-02-07T05:45:03.283Z,99.9
2018-02-07T05:50:07.940Z,99.9
2018-02-07T05:55:05.977Z,99.9
2018-02-07T06:00:06.130Z,99.9
2018-02-07T06:05:03.098Z,99.9
2018-02-07T06:10:05.748Z,99.9
2018-02-07T06:15:07.794Z,99.9
2018-02-07T06:20:03.450Z,99.9
2018-02-07T06:25:30.760Z,99.9
2018-02-07T06:30:05.872Z,99.9
2018-02-07T06:35:02.922Z,99.9
2018-02-07T06:40:03.005Z,99.9
2018-02-07T06:45:07.747Z,99.9
2018-02-07T06:50:26.105Z,99.9
2018-02-07T06:55:03.644Z,99.9
2018-02-07T07:00:03.241Z,99.9
2018-02-07T07:05:05.357Z,99.9
2018-02-07T07:10:06.013Z,99.9
2018-02-07T07:15:03.051Z,99.9
2018-02-07T07:20:05.234Z,99.9
2018-02-07T07:25:03.244Z,99.9
2018-02-07T07:30:05.457Z,99.9
2018-02-07T07:35:05.911Z,99.9
2018-02-07T07:40:08.565Z,99.9
2018-02-07T07:45:05.555Z,99.9
2018-02-07T07:50:03.157Z,99.9
2018-02-07T07:55:07.834Z,99.9
2018-02-07T08:00:05.983Z,99.9
2018-02-07T08:05:05.514Z,99.9
2018-02-07T08:10:13.693Z,99.9
2018-02-07T08:15:03.079Z,99.9
2018-02-07T08:20:05.272Z,99.9
2018-02-07T08:25:03.238Z,99.9
2018-02-07T08:30:05.636Z,99.9
2018-02-07T08:35:08.479Z,99.9
2018-02-07T08:40:03.560Z,99.9
2018-02-07T08:45:15.862Z,99.9
2018-02-07T08:50:03.492Z,99.9
2018-02-07T08:55:03.032Z,99.9
2018-02-07T09:00:05.226Z,99.9
2018-02-07T09:05:08.445Z,99.9
2018-02-07T09:10:03.483Z,99.9
2018-02-07T09:15:05.587Z,99.9
2018-02-07T09:20:08.297Z,99.9
2018-02-07T09:25:02.773Z,99.9
2018-02-07T09:30:05.869Z,99.9
2018-02-07T09:35:02.883Z,99.9
2018-02-07T09:40:03.010Z,99.9
2018-02-07T09:45:03.468Z,99.9
2018-02-07T09:50:03.022Z,99.9
2018-02-07T09:55:08.700Z,99.9
2018-02-07T10:00:08.359Z,99.9
2018-02-07T10:05:05.362Z,99.9
2018-02-07T10:10:02.890Z,99.9
2018-02-07T10:15:08.534Z,99.9
2018-02-07T10:20:05.996Z,99.9
2018-02-07T10:25:03.165Z,99.9
2018-02-07T10:30:05.776Z,99.9
2018-02-07T10:35:02.713Z,99.9
2018-02-07T10:40:05.653Z,99.9
2018-02-07T10:45:07.764Z,99.9
2018-02-07T10:55:02.994Z,99.9
2018-02-07T11:00:11.277Z,99.9
2018-02-07T11:05:03.209Z,99.9
2018-02-07T11:10:10.817Z,99.9
2018-02-07T11:15:10.368Z,99.9
2018-02-07T11:20:03.157Z,99.9
2018-02-07T11:25:06.132Z,99.9
2018-02-07T11:30:05.311Z,98.9
2018-02-07T11:35:03.304Z,86.2
2018-02-07T11:40:03.371Z,98.2
2018-02-07T11:45:10.506Z,97.2
2018-02-07T11:50:10.682Z,97.5
2018-02-07T11:55:02.663Z,97.5
2018-02-07T12:00:05.793Z,97.4
2018-02-07T12:05:07.905Z,96.3
2018-02-07T12:10:05.511Z,95.6
2018-02-07T12:15:08.710Z,95.5
2018-02-07T12:20:03.381Z,95.5
2018-02-07T12:25:08.029Z,93.5
2018-02-07T12:30:08.744Z,91.9
2018-02-07T12:35:13.293Z,91.9
2018-02-07T12:40:03.329Z,91.8
2018-02-07T12:45:02.954Z,92
2018-02-07T12:50:03.590Z,91.1
2018-02-07T12:55:03.092Z,91
2018-02-07T13:00:06.219Z,92.2
2018-02-07T13:05:05.787Z,91.4
2018-02-07T13:10:05.380Z,86
2018-02-07T13:15:08.534Z,83.5
2018-02-07T13:20:03.162Z,83.3
2018-02-07T13:25:02.765Z,83.4
2018-02-07T13:30:11.115Z,82.8
2018-02-07T13:35:03.076Z,82.7
2018-02-07T13:40:03.131Z,81.7
2018-02-07T13:45:05.342Z,80.8
2018-02-07T13:50:10.615Z,80.1
2018-02-07T13:55:08.564Z,80.5
2018-02-07T14:00:08.135Z,79.9
2018-02-07T14:05:02.662Z,79.9
2018-02-07T14:10:02.862Z,77
2018-02-07T14:15:05.849Z,73.4
2018-02-07T14:20:03.654Z,73.4
2018-02-07T14:25:03.615Z,31.1
2018-02-07T14:30:05.778Z,38.4
2018-02-07T14:35:07.811Z,40.6
2018-02-07T14:40:05.459Z,41.9
2018-02-07T14:45:03.585Z,41.9
2018-02-07T14:50:23.354Z,42.7
2018-02-07T14:55:02.730Z,42.7
2018-02-07T15:00:03.420Z,42.5
2018-02-07T15:05:08.016Z,42
2018-02-07T15:10:05.643Z,41.8
2018-02-07T15:15:02.788Z,41.7
2018-02-07T15:20:08.518Z,41.7
2018-02-07T15:25:03.018Z,41.6
2018-02-07T15:30:03.663Z,41.2
2018-02-07T15:35:05.795Z,42.7
2018-02-07T15:40:07.955Z,43.3
2018-02-07T15:45:03.598Z,43.3
2018-02-07T15:50:05.740Z,44.4
2018-02-07T15:55:05.246Z,45
2018-02-07T16:00:02.849Z,44.9
2018-02-07T16:05:03.457Z,45.4
2018-02-07T16:10:03.580Z,46.1
2018-02-07T16:15:08.126Z,47.5
2018-02-07T16:20:02.805Z,47.5
2018-02-07T16:25:05.891Z,48.3
2018-02-07T16:30:05.991Z,48.9
2018-02-07T16:35:05.601Z,49.7
2018-02-07T16:40:08.719Z,49.8
2018-02-07T16:45:03.488Z,49.8
2018-02-07T16:50:15.709Z,50.2
2018-02-07T16:55:02.672Z,50.2
2018-02-07T17:00:05.860Z,50.6
2018-02-07T17:05:02.918Z,50.6
2018-02-07T17:10:02.977Z,51.3
2018-02-07T17:15:03.565Z,51.8
2018-02-07T17:20:05.760Z,52.7
2018-02-07T17:25:02.770Z,52.6
2018-02-07T17:30:03.350Z,53.2
2018-02-07T17:35:05.498Z,53.9
2018-02-07T17:40:06.033Z,53.6
2018-02-07T17:45:05.574Z,53.2
2018-02-07T17:50:05.790Z,53
2018-02-07T17:55:07.860Z,52.7
2018-02-07T18:00:06.025Z,52.6
2018-02-07T18:05:05.577Z,52.7
2018-02-07T18:10:06.170Z,52.9
2018-02-07T18:15:05.748Z,53.2
2018-02-07T18:20:03.502Z,53.2
2018-02-07T18:25:03.037Z,53.2
2018-02-07T18:30:06.152Z,53.6
2018-02-07T18:35:06.844Z,53.2
2018-02-07T18:40:03.027Z,53.1
2018-02-07T18:45:03.457Z,52.5
2018-02-07T18:50:08.165Z,53.1
2018-02-07T18:55:03.611Z,53.1
2018-02-07T19:00:03.271Z,53.2
2018-02-07T19:05:07.872Z,53.6
2018-02-07T19:10:10.512Z,53.7
2018-02-07T19:15:03.530Z,53.7
2018-02-07T19:20:03.378Z,54
2018-02-07T19:25:08.036Z,54.2
2018-02-07T19:30:05.226Z,54.2
2018-02-07T19:35:18.410Z,54
2018-02-07T19:40:21.184Z,54
2018-02-07T19:45:03.347Z,54
2018-02-07T19:50:05.538Z,54.3
2018-02-07T19:55:07.721Z,54.6
2018-02-07T20:00:05.830Z,54.8
2018-02-07T20:05:02.856Z,54.8
2018-02-07T20:10:03.267Z,55.1
2018-02-07T20:15:05.278Z,55.8
2018-02-07T20:20:02.970Z,55.8
2018-02-07T20:25:08.713Z,56.1
2018-02-07T20:30:03.291Z,56.1
2018-02-07T20:35:08.135Z,56.6
2018-02-07T20:40:05.709Z,56.9
2018-02-07T20:45:08.037Z,57.1
2018-02-07T20:50:03.608Z,57.1
2018-02-07T20:55:10.782Z,57.5
2018-02-07T21:00:05.887Z,57.6
2018-02-07T21:05:05.778Z,57.8
2018-02-07T21:10:06.476Z,57.9
2018-02-07T21:15:08.664Z,58.2
2018-02-07T21:20:05.888Z,58.4
2018-02-07T21:25:05.473Z,58.4
2018-02-07T21:30:03.078Z,58.4
2018-02-07T21:35:03.587Z,58.8
2018-02-07T21:40:11.278Z,59.1
2018-02-07T21:45:05.732Z,59.3
2018-02-07T21:50:05.230Z,59.5
2018-02-07T21:55:03.230Z,59.5
2018-02-07T22:00:15.563Z,59.7
2018-02-07T22:05:05.854Z,59.7
2018-02-07T22:10:30.676Z,59.9
2018-02-07T22:15:05.875Z,60
2018-02-07T22:20:03.514Z,60
2018-02-07T22:25:08.168Z,60.5
2018-02-07T22:30:02.811Z,60.5
2018-02-07T22:35:03.276Z,61
2018-02-07T22:40:08.374Z,61.5
2018-02-07T22:45:05.454Z,61.9
2018-02-07T22:50:03.007Z,61.9
2018-02-07T22:55:06.033Z,62.3
2018-02-07T23:00:06.176Z,62.9
2018-02-07T23:05:08.262Z,63.3
2018-02-07T23:10:03.360Z,63.3
2018-02-07T23:15:02.940Z,63.4
2018-02-07T23:20:03.681Z,63.8
2018-02-07T23:25:03.149Z,63.7
2018-02-07T23:30:05.248Z,64.2
2018-02-07T23:35:05.901Z,64.6
2018-02-07T23:40:03.015Z,64.6
2018-02-07T23:45:06.096Z,65.1
2018-02-07T23:50:03.620Z,65
2018-02-07T23:55:08.267Z,65.4
